HESH

Sharm El Sheikh International Airport

Sharm el-Sheikh, Egypt
METAR HESH 190300Z 28014KT 6000 NSC 17/02 Q1009 NOSIG
Observed Flight Rules
Jan-19 @ 03:00 UTC (46 minutes ago) Marginal Visual Flight Rules
Wind Visibility Clouds
280° at 14 knots 6,003 meters
  • Clear skies
Temperatures Readings
Current 17°C / 63°F
Dewpoint 2°C / 36°F
Humidity 37%
Altimeter 29.79" Hg
Pressure 1009 hPa
Elevation 50
METAR HESH 190300Z 28014KT 6000 NSC 17/02 Q1009 NOSIG
Observed Flight Rules
Jan-19 @ 03:00 UTC
(46 minutes ago)
MVFR
Wind Visibility
280° at 14 knots 6,003 meters
Clouds
  • Clear skies
Temperature Dewpoint
17°C / 63°F 2°C / 36°F
Humidity Altimeter Pressure
37% 29.79" Hg 1009 hPa